Time;durP1;ratioP1;P1;durP2;ratioP2;P2;SDS_P1;SDS_P2;PMS_P1;PMS_P2;Temp;Humidity;BMP_temperature;BMP_pressure;BME280_temperature;BME280_humidity;BME280_pressure;Samples;Min_cycle;Max_cycle;Signal;HPM_P1;HPM_P2
2021/07/25 00:01:20;;;;;;;14.15;12.77;;;25.10;99.90;;;;;;5113259;28;20397;-72
2021/07/25 00:03:46;;;;;;;19.73;13.85;;;25.10;99.90;;;;;;5112080;28;20106;-71
2021/07/25 00:06:18;;;;;;;20.23;15.30;;;24.90;99.90;;;;;;5113522;28;20027;-72
2021/07/25 00:08:44;;;;;;;16.55;14.95;;;25.00;99.90;;;;;;5113300;28;20024;-73
2021/07/25 00:11:10;;;;;;;14.13;12.82;;;25.00;99.90;;;;;;5113459;28;20154;-69
2021/07/25 00:13:40;;;;;;;17.25;14.93;;;25.00;99.90;;;;;;5113423;28;20027;-69
2021/07/25 00:16:07;;;;;;;15.60;14.27;;;25.00;99.90;;;;;;5112890;28;20545;-71
2021/07/25 00:18:33;;;;;;;15.85;14.13;;;24.80;99.90;;;;;;5111548;28;20031;-71
2021/07/25 00:20:58;;;;;;;15.30;13.20;;;24.80;99.90;;;;;;5113060;28;20362;-71
2021/07/25 00:23:26;;;;;;;14.35;12.93;;;24.80;99.90;;;;;;5113715;28;20030;-71
2021/07/25 00:25:56;;;;;;;15.48;14.00;;;24.80;99.90;;;;;;5113682;28;20016;-71
2021/07/25 00:28:31;;;;;;;13.85;12.52;;;24.80;99.90;;;;;;5112992;28;20024;-71
2021/07/25 00:30:59;;;;;;;14.65;13.20;;;24.80;99.90;;;;;;5113209;28;20506;-71
2021/07/25 00:33:25;;;;;;;15.82;14.05;;;24.90;99.90;;;;;;5111295;28;20446;-72
2021/07/25 00:35:50;;;;;;;15.13;13.50;;;24.80;99.90;;;;;;5111177;28;20061;-72
2021/07/25 00:38:16;;;;;;;15.00;13.40;;;24.70;99.90;;;;;;5111340;28;20127;-72
2021/07/25 00:40:44;;;;;;;16.42;12.57;;;24.70;99.90;;;;;;5111580;28;20027;-72
2021/07/25 00:43:22;;;;;;;16.65;15.13;;;24.60;99.90;;;;;;5112454;28;20084;-72
2021/07/25 00:45:48;;;;;;;15.82;13.60;;;24.70;99.90;;;;;;5110931;28;20039;-72
2021/07/25 00:48:14;;;;;;;17.70;12.98;;;24.70;99.90;;;;;;5111952;28;20474;-71
2021/07/25 00:50:40;;;;;;;14.55;12.63;;;24.70;99.90;;;;;;5112112;28;20024;-71
2021/07/25 00:53:06;;;;;;;15.88;14.18;;;24.70;99.90;;;;;;5111756;28;20084;-72
2021/07/25 00:55:32;;;;;;;15.75;14.15;;;24.70;99.90;;;;;;5110564;28;20019;-71
2021/07/25 00:58:01;;;;;;;16.27;14.60;;;24.70;99.90;;;;;;5110741;28;20055;-71
2021/07/25 01:00:27;;;;;;;15.45;14.05;;;24.70;99.90;;;;;;5111092;28;20034;-72
2021/07/25 01:03:07;;;;;;;17.42;14.50;;;24.70;99.90;;;;;;5112419;28;20019;-71
2021/07/25 01:05:44;;;;;;;18.05;15.07;;;24.70;99.90;;;;;;5111399;28;20028;-71
2021/07/25 01:08:19;;;;;;;21.63;16.85;;;24.60;99.90;;;;;;5107879;28;20030;-71
2021/07/25 01:10:47;;;;;;;17.85;16.27;;;24.50;99.90;;;;;;5111985;28;20493;-69
2021/07/25 01:13:19;;;;;;;19.40;17.35;;;24.50;99.90;;;;;;5111601;28;20031;-69
2021/07/25 01:15:47;;;;;;;18.50;16.65;;;24.40;99.90;;;;;;5111951;27;20028;-72
2021/07/25 01:18:13;;;;;;;17.23;15.50;;;24.40;99.90;;;;;;5111457;28;20038;-71
2021/07/25 01:20:38;;;;;;;20.48;18.63;;;24.40;99.90;;;;;;5111519;28;20015;-71
2021/07/25 01:23:04;;;;;;;21.08;18.98;;;24.20;99.90;;;;;;5111678;28;20019;-71
2021/07/25 01:25:30;;;;;;;18.92;16.95;;;24.30;99.90;;;;;;5110098;28;20103;-71
2021/07/25 01:28:16;;;;;;;19.65;17.83;;;24.30;99.90;;;;;;5112034;28;20020;-73
2021/07/25 01:30:49;;;;;;;18.17;16.40;;;24.20;99.90;;;;;;5111590;28;20020;-71
2021/07/25 01:33:20;;;;;;;19.17;17.05;;;24.20;99.90;;;;;;5111716;28;20479;-72
2021/07/25 01:35:47;;;;;;;19.23;16.17;;;24.30;99.90;;;;;;5111393;28;20088;-71
2021/07/25 01:38:14;;;;;;;20.27;17.65;;;24.30;99.90;;;;;;5110021;28;20112;-71
2021/07/25 01:40:39;;;;;;;18.85;17.17;;;24.20;99.90;;;;;;5110040;28;20022;-70
2021/07/25 01:43:09;;;;;;;19.92;18.00;;;24.20;99.90;;;;;;5110155;28;20023;-73
2021/07/25 01:45:35;;;;;;;18.88;17.00;;;24.10;99.90;;;;;;5112130;28;20485;-71
2021/07/25 01:48:01;;;;;;;19.38;17.33;;;24.00;99.90;;;;;;5112084;28;20020;-73
2021/07/25 01:50:27;;;;;;;15.82;14.43;;;24.10;99.90;;;;;;5110358;28;20028;-72
2021/07/25 01:52:53;;;;;;;15.40;13.88;;;24.00;99.90;;;;;;5110479;28;20115;-71
2021/07/25 01:55:19;;;;;;;17.08;15.48;;;24.00;99.90;;;;;;5111453;28;20423;-71
2021/07/25 01:57:44;;;;;;;17.27;15.40;;;24.00;99.90;;;;;;5111129;28;20020;-71
2021/07/25 02:00:11;;;;;;;16.52;14.88;;;24.00;99.90;;;;;;5111399;28;20027;-71
2021/07/25 02:02:36;;;;;;;17.70;15.95;;;23.90;99.90;;;;;;5111140;28;20397;-71
2021/07/25 02:05:05;;;;;;;20.05;15.20;;;23.90;99.90;;;;;;5111419;28;20216;-71
2021/07/25 02:07:30;;;;;;;17.42;14.55;;;23.90;99.90;;;;;;5115164;28;20149;-71
2021/07/25 02:09:56;;;;;;;16.88;15.00;;;23.90;99.90;;;;;;5114082;28;20057;-71
2021/07/25 02:12:22;;;;;;;15.75;13.88;;;23.90;99.90;;;;;;5115209;28;20445;-72
2021/07/25 02:14:47;;;;;;;17.83;14.18;;;24.00;99.90;;;;;;5115283;28;20024;-71
2021/07/25 02:17:13;;;;;;;17.45;14.50;;;24.00;99.90;;;;;;5113770;28;20504;-70
2021/07/25 02:19:39;;;;;;;19.40;15.02;;;23.90;99.90;;;;;;5115121;28;20024;-71
2021/07/25 02:22:05;;;;;;;16.67;14.88;;;24.00;99.90;;;;;;5113615;28;20027;-71
2021/07/25 02:24:31;;;;;;;16.35;14.70;;;24.10;99.90;;;;;;5115045;28;20099;-71
2021/07/25 02:26:57;;;;;;;17.17;15.48;;;24.10;99.90;;;;;;5115066;28;20493;-71
2021/07/25 02:29:23;;;;;;;16.50;14.90;;;24.20;99.90;;;;;;5113203;28;20020;-71
2021/07/25 02:31:49;;;;;;;18.35;15.45;;;24.10;99.90;;;;;;5113378;28;20030;-70
2021/07/25 02:34:15;;;;;;;16.38;14.98;;;24.20;99.90;;;;;;5113515;28;20117;-70
2021/07/25 02:36:41;;;;;;;16.08;14.50;;;24.20;99.90;;;;;;5114590;28;20059;-70
2021/07/25 02:39:07;;;;;;;19.73;13.88;;;24.40;99.90;;;;;;5113056;28;20038;-71
2021/07/25 02:41:33;;;;;;;20.30;15.80;;;24.40;99.90;;;;;;5114552;28;20076;-71
2021/07/25 02:43:59;;;;;;;16.20;14.70;;;24.40;99.90;;;;;;5113148;28;20015;-71
2021/07/25 02:46:25;;;;;;;15.23;13.93;;;24.40;99.90;;;;;;5113135;28;20024;-69
2021/07/25 02:48:50;;;;;;;15.27;14.07;;;24.40;99.90;;;;;;5113061;28;20030;-71
2021/07/25 02:51:16;;;;;;;15.45;14.05;;;24.50;99.90;;;;;;5112989;28;20039;-71
2021/07/25 02:53:42;;;;;;;16.17;14.77;;;24.60;99.90;;;;;;5113024;28;20072;-71
2021/07/25 02:56:08;;;;;;;15.93;14.30;;;24.60;99.90;;;;;;5113008;28;20054;-71
2021/07/25 02:58:33;;;;;;;16.38;14.88;;;24.60;99.90;;;;;;5113030;28;20103;-70
2021/07/25 03:01:08;;;;;;;15.40;13.82;;;24.50;99.90;;;;;;5113997;28;20034;-71
2021/07/25 03:03:33;;;;;;;14.88;13.38;;;24.50;99.90;;;;;;5113130;28;20544;-70
2021/07/25 03:05:59;;;;;;;15.43;13.95;;;24.50;99.90;;;;;;5112813;28;20110;-71
2021/07/25 03:08:25;;;;;;;16.83;14.80;;;24.50;99.90;;;;;;5104799;28;20016;-72
2021/07/25 03:10:50;;;;;;;14.63;13.18;;;24.40;99.90;;;;;;5109784;28;20073;-70
2021/07/25 03:13:16;;;;;;;14.02;12.82;;;24.50;99.90;;;;;;5112997;28;20240;-72
2021/07/25 03:15:42;;;;;;;16.63;14.85;;;24.60;99.90;;;;;;5114146;28;20438;-72
2021/07/25 03:18:08;;;;;;;18.70;16.42;;;24.70;99.90;;;;;;5112541;28;20430;-72
2021/07/25 03:20:33;;;;;;;16.55;14.60;;;24.80;99.90;;;;;;5112768;28;20019;-71
2021/07/25 03:22:59;;;;;;;15.25;13.65;;;24.90;99.90;;;;;;5112840;28;20068;-71
2021/07/25 03:25:25;;;;;;;13.93;12.32;;;24.90;99.90;;;;;;5112502;28;20065;-70
2021/07/25 03:27:51;;;;;;;15.25;13.70;;;24.90;99.90;;;;;;5112561;28;20023;-72
2021/07/25 03:30:17;;;;;;;15.32;13.77;;;24.90;99.90;;;;;;5112932;28;20485;-71
2021/07/25 03:32:42;;;;;;;13.85;12.65;;;24.90;99.90;;;;;;5112893;28;20106;-72
2021/07/25 03:35:09;;;;;;;14.95;13.02;;;25.00;99.90;;;;;;5112684;28;20020;-72
2021/07/25 03:37:34;;;;;;;12.13;10.90;;;25.10;99.90;;;;;;5112363;28;20484;-71
2021/07/25 03:40:00;;;;;;;14.65;11.88;;;25.30;99.90;;;;;;5112491;28;20039;-71
2021/07/25 03:42:26;;;;;;;14.38;12.93;;;25.40;99.90;;;;;;5113437;28;20024;-71
2021/07/25 03:44:52;;;;;;;14.80;13.45;;;25.40;99.90;;;;;;5112284;28;20024;-71
2021/07/25 03:47:18;;;;;;;14.18;12.77;;;25.40;99.90;;;;;;5113570;28;20050;-72
2021/07/25 03:49:44;;;;;;;12.65;11.48;;;25.40;99.90;;;;;;5113237;28;20028;-72
2021/07/25 03:52:13;;;;;;;13.55;11.98;;;25.40;99.90;;;;;;5111919;28;20024;-71
2021/07/25 03:54:42;;;;;;;12.93;11.52;;;25.40;99.90;;;;;;5113155;28;20032;-70
2021/07/25 03:57:09;;;;;;;15.73;11.82;;;25.40;99.90;;;;;;5111920;28;20020;-71
2021/07/25 03:59:36;;;;;;;14.18;12.90;;;25.50;99.90;;;;;;5113958;28;20059;-71
2021/07/25 04:02:01;;;;;;;13.05;11.68;;;25.50;99.90;;;;;;5111768;28;20478;-71
2021/07/25 04:04:27;;;;;;;14.43;13.15;;;25.50;99.90;;;;;;5113375;28;20028;-73
2021/07/25 04:06:53;;;;;;;13.50;12.13;;;25.50;99.90;;;;;;5111744;28;20080;-70
2021/07/25 04:09:18;;;;;;;13.85;12.27;;;25.40;99.90;;;;;;5112097;28;20027;-71
2021/07/25 04:11:55;;;;;;;15.25;13.80;;;25.30;99.90;;;;;;5111531;28;20031;-71
2021/07/25 04:14:21;;;;;;;13.38;12.13;;;25.40;99.90;;;;;;5111718;28;20066;-71
2021/07/25 04:16:48;;;;;;;14.13;12.70;;;25.50;99.90;;;;;;5112842;28;20051;-72
2021/07/25 04:19:14;;;;;;;16.50;11.98;;;25.50;99.90;;;;;;5112216;28;20370;-71
2021/07/25 04:21:40;;;;;;;13.95;11.38;;;25.50;99.90;;;;;;5112514;28;20027;-71
2021/07/25 04:24:06;;;;;;;16.55;11.95;;;25.60;99.90;;;;;;5112485;28;20028;-72
2021/07/25 04:26:32;;;;;;;16.73;11.80;;;25.70;99.90;;;;;;5112736;28;20035;-74
2021/07/25 04:28:58;;;;;;;14.10;12.65;;;25.80;99.90;;;;;;5110458;28;20032;-72
2021/07/25 04:31:24;;;;;;;12.60;11.30;;;26.00;99.90;;;;;;5111174;28;20023;-72
2021/07/25 04:33:52;;;;;;;13.90;12.45;;;26.00;99.90;;;;;;5112414;28;20046;-70
2021/07/25 04:36:25;;;;;;;13.23;11.75;;;26.10;99.90;;;;;;5112660;28;20076;-71
2021/07/25 04:38:55;;;;;;;16.92;12.00;;;26.10;99.90;;;;;;5112261;28;20430;-70
2021/07/25 04:41:24;;;;;;;11.60;10.50;;;26.10;99.90;;;;;;5110962;28;20489;-70
2021/07/25 04:44:04;;;;;;;11.30;9.85;;;26.10;99.90;;;;;;5112377;28;20034;-70
2021/07/25 04:46:33;;;;;;;13.18;11.73;;;26.20;99.90;;;;;;5111170;28;20452;-70
2021/07/25 04:49:11;;;;;;;13.77;12.35;;;26.20;99.90;;;;;;5112053;28;20019;-70
2021/07/25 04:51:39;;;;;;;11.38;10.32;;;26.30;99.90;;;;;;5110694;28;20042;-71
2021/07/25 04:54:18;;;;;;;14.82;11.90;;;26.30;99.90;;;;;;5112143;27;20034;-71
2021/07/25 04:57:01;;;;;;;12.32;10.50;;;26.30;99.90;;;;;;5110642;28;20028;-69
2021/07/25 04:59:29;;;;;;;11.07;9.95;;;26.30;99.90;;;;;;5111947;27;20034;-71
2021/07/25 05:02:06;;;;;;;11.18;10.00;;;26.40;99.90;;;;;;5110658;28;20031;-71
2021/07/25 05:04:32;;;;;;;11.77;10.65;;;26.50;99.90;;;;;;5112758;28;20099;-71
2021/07/25 05:06:59;;;;;;;15.18;13.27;;;26.70;99.90;;;;;;5112962;28;20537;-70
2021/07/25 05:09:25;;;;;;;14.82;12.15;;;26.80;99.90;;;;;;5103960;28;20417;-71
2021/07/25 05:12:01;;;;;;;13.73;12.20;;;26.90;99.90;;;;;;5107605;28;20019;-71
2021/07/25 05:14:37;;;;;;;15.40;11.00;;;27.00;99.90;;;;;;5111000;28;20035;-71
2021/07/25 05:17:22;;;;;;;14.38;11.75;;;27.00;99.90;;;;;;5111888;28;20469;-72
2021/07/25 05:19:48;;;;;;;12.15;9.82;;;27.10;99.90;;;;;;5111485;28;20532;-70
2021/07/25 05:22:17;;;;;;;12.95;11.60;;;27.10;99.90;;;;;;5110053;28;20023;-70
2021/07/25 05:24:46;;;;;;;13.93;12.55;;;27.00;99.90;;;;;;5111685;28;20393;-72
2021/07/25 05:27:23;;;;;;;12.02;10.82;;;27.10;99.90;;;;;;5111559;28;20028;-71
2021/07/25 05:29:51;;;;;;;13.48;9.45;;;27.10;99.90;;;;;;5110290;28;20114;-72
2021/07/25 05:32:19;;;;;;;11.85;10.63;;;27.20;99.90;;;;;;5110357;28;20117;-72
2021/07/25 05:34:45;;;;;;;17.02;11.40;;;27.20;99.90;;;;;;5111964;28;20084;-72
2021/07/25 05:37:11;;;;;;;14.52;10.02;;;27.40;99.90;;;;;;5111140;28;20140;-71
2021/07/25 05:39:37;;;;;;;11.65;10.65;;;27.50;99.90;;;;;;5111224;28;20114;-73
2021/07/25 05:42:03;;;;;;;15.25;10.73;;;27.60;99.90;;;;;;5111168;28;20045;-74
2021/07/25 05:44:31;;;;;;;12.80;9.27;;;27.70;99.90;;;;;;5111509;28;20024;-72
2021/07/25 05:46:58;;;;;;;12.63;10.02;;;27.70;99.90;;;;;;5110250;28;20082;-72
2021/07/25 05:49:24;;;;;;;10.50;9.55;;;27.70;99.90;;;;;;5111129;28;20416;-71
2021/07/25 05:51:50;;;;;;;11.13;10.02;;;27.70;99.90;;;;;;5111481;28;20023;-71
2021/07/25 05:54:15;;;;;;;15.48;10.80;;;27.60;99.90;;;;;;5111270;28;20080;-73
2021/07/25 05:56:41;;;;;;;17.20;11.15;;;27.50;99.90;;;;;;5111350;28;20027;-70
2021/07/25 05:59:10;;;;;;;10.93;9.82;;;27.40;99.90;;;;;;5111015;28;20027;-71
2021/07/25 06:01:36;;;;;;;21.70;17.48;;;27.50;99.90;;;;;;5111793;28;20111;-71
2021/07/25 06:04:03;;;;;;;21.38;19.23;;;27.60;99.90;;;;;;5111751;28;20127;-71
2021/07/25 06:06:30;;;;;;;18.52;16.17;;;27.60;99.90;;;;;;5110087;28;20422;-70
2021/07/25 06:08:56;;;;;;;13.68;11.65;;;27.70;99.90;;;;;;5110843;28;20473;-71
2021/07/25 06:11:23;;;;;;;12.45;10.88;;;27.80;99.90;;;;;;5109595;28;20051;-70
2021/07/25 06:13:50;;;;;;;11.07;10.00;;;27.80;99.90;;;;;;5110072;28;20023;-71
2021/07/25 06:16:15;;;;;;;14.50;10.60;;;27.90;99.90;;;;;;5109595;28;20451;-71
2021/07/25 06:18:42;;;;;;;16.98;9.90;;;28.00;99.90;;;;;;5110514;28;20031;-72
2021/07/25 06:21:08;;;;;;;13.45;10.55;;;28.10;99.90;;;;;;5110448;28;20400;-72
2021/07/25 06:23:34;;;;;;;15.15;10.88;;;28.20;99.90;;;;;;5109671;28;20057;-72
2021/07/25 06:25:59;;;;;;;16.83;11.75;;;28.20;99.90;;;;;;5111838;28;20031;-71
2021/07/25 06:28:25;;;;;;;12.95;11.75;;;28.20;99.90;;;;;;5110619;28;20019;-71
2021/07/25 06:30:51;;;;;;;11.90;10.43;;;28.10;99.90;;;;;;5112748;28;20019;-71
2021/07/25 06:33:16;;;;;;;12.35;10.95;;;28.10;99.90;;;;;;5111530;28;20524;-72
2021/07/25 06:35:43;;;;;;;10.82;9.73;;;28.30;99.90;;;;;;5112486;28;20091;-72
2021/07/25 06:38:11;;;;;;;11.05;9.90;;;28.50;99.90;;;;;;5110406;28;20036;-72
2021/07/25 06:40:42;;;;;;;12.15;10.90;;;28.80;99.90;;;;;;5111238;28;20095;-72
2021/07/25 06:43:08;;;;;;;11.45;10.23;;;29.10;99.90;;;;;;5111399;28;20037;-72
2021/07/25 06:45:34;;;;;;;14.13;10.60;;;29.20;99.90;;;;;;5111343;28;20023;-72
2021/07/25 06:48:00;;;;;;;12.65;11.43;;;29.10;99.90;;;;;;5110090;28;20016;-71
2021/07/25 06:50:28;;;;;;;12.48;11.38;;;28.90;99.90;;;;;;5110799;28;20024;-71
2021/07/25 06:52:56;;;;;;;15.80;10.73;;;28.80;99.90;;;;;;5114523;28;20027;-71
2021/07/25 06:55:25;;;;;;;17.80;10.27;;;28.80;99.90;;;;;;5115347;28;20061;-71
2021/07/25 06:57:51;;;;;;;13.85;10.27;;;28.90;99.90;;;;;;5114821;28;20558;-71
2021/07/25 07:00:17;;;;;;;11.80;10.63;;;28.90;99.90;;;;;;5114107;28;20072;-71
2021/07/25 07:02:49;;;;;;;14.60;11.15;;;29.00;99.90;;;;;;5115488;28;20035;-72
2021/07/25 07:05:19;;;;;;;12.38;10.75;;;29.20;99.90;;;;;;5115988;28;20051;-71
2021/07/25 07:07:46;;;;;;;16.17;9.35;;;29.30;99.90;;;;;;5113863;28;20425;-71
2021/07/25 07:10:13;;;;;;;10.65;9.60;;;29.30;99.90;;;;;;5104977;28;20097;-71
2021/07/25 07:12:38;;;;;;;11.43;8.60;;;29.30;99.90;;;;;;5109743;28;20539;-71
2021/07/25 07:15:08;;;;;;;17.48;11.38;;;29.30;99.90;;;;;;5114670;28;20106;-71
2021/07/25 07:17:34;;;;;;;12.77;11.43;;;29.30;99.90;;;;;;5114653;28;20035;-72
2021/07/25 07:20:00;;;;;;;12.40;10.07;;;29.30;99.90;;;;;;5114799;28;20381;-71
2021/07/25 07:22:30;;;;;;;11.13;10.02;;;29.40;99.90;;;;;;5113897;28;20489;-71
2021/07/25 07:24:57;;;;;;;11.63;10.35;;;29.50;99.90;;;;;;5113398;28;20023;-71
2021/07/25 07:27:24;;;;;;;10.80;9.80;;;29.50;99.90;;;;;;5113755;28;20084;-71
2021/07/25 07:29:52;;;;;;;10.13;9.20;;;29.40;99.90;;;;;;5114444;28;20435;-72
2021/07/25 07:32:18;;;;;;;17.67;10.30;;;29.30;99.90;;;;;;5113261;28;20551;-71
2021/07/25 07:34:44;;;;;;;15.43;9.25;;;29.30;99.90;;;;;;5114923;28;20028;-71
2021/07/25 07:37:10;;;;;;;11.85;10.55;;;29.30;99.90;;;;;;5114735;27;20102;-72
2021/07/25 07:39:36;;;;;;;15.75;10.52;;;29.20;99.90;;;;;;5113130;28;20027;-71
2021/07/25 07:42:03;;;;;;;11.18;9.45;;;29.10;99.90;;;;;;5114531;28;20461;-71
2021/07/25 07:44:29;;;;;;;16.27;10.35;;;29.30;99.90;;;;;;5113291;28;20019;-71
2021/07/25 07:46:55;;;;;;;11.38;10.25;;;29.40;99.90;;;;;;5113941;28;20157;-71
2021/07/25 07:49:21;;;;;;;12.40;9.45;;;29.50;99.90;;;;;;5117105;28;20035;-71
2021/07/25 07:51:46;;;;;;;12.13;10.63;;;29.60;99.90;;;;;;5119191;28;20024;-70
2021/07/25 07:54:12;;;;;;;14.15;11.15;;;29.70;99.90;;;;;;5123479;28;20474;-71
2021/07/25 07:56:38;;;;;;;14.52;10.43;;;29.60;99.90;;;;;;5119870;28;20024;-71
2021/07/25 07:59:04;;;;;;;11.77;10.40;;;29.50;99.90;;;;;;5124607;28;20027;-71
2021/07/25 08:01:30;;;;;;;11.30;10.18;;;29.30;99.90;;;;;;5122954;28;20026;-70
2021/07/25 08:03:55;;;;;;;12.95;10.77;;;29.30;99.90;;;;;;5129900;28;20051;-70
2021/07/25 08:06:21;;;;;;;11.15;10.02;;;29.30;99.90;;;;;;5128656;28;20058;-71
2021/07/25 08:08:47;;;;;;;12.38;10.13;;;29.40;99.90;;;;;;5122295;28;20027;-70
2021/07/25 08:11:12;;;;;;;10.32;9.43;;;29.50;99.90;;;;;;5123093;28;20099;-68
2021/07/25 08:13:38;;;;;;;12.27;9.98;;;29.60;99.90;;;;;;5122361;28;20390;-69
2021/07/25 08:16:04;;;;;;;23.95;10.85;;;29.60;99.90;;;;;;5124342;28;20053;-71
2021/07/25 08:18:30;;;;;;;13.63;10.95;;;29.50;99.90;;;;;;5122503;28;20054;-68
2021/07/25 08:20:56;;;;;;;11.18;10.15;;;29.30;99.90;;;;;;5127444;28;20143;-71
2021/07/25 08:23:21;;;;;;;11.98;10.68;;;29.30;99.90;;;;;;5126565;28;20024;-71
2021/07/25 08:25:47;;;;;;;12.23;10.23;;;29.20;99.90;;;;;;5126619;28;20027;-72
2021/07/25 08:28:13;;;;;;;12.65;10.98;;;29.30;99.90;;;;;;5128262;28;20024;-72
2021/07/25 08:30:39;;;;;;;10.88;9.77;;;29.40;99.90;;;;;;5124780;28;20020;-70
2021/07/25 08:33:06;;;;;;;11.02;10.00;;;29.60;99.90;;;;;;5125977;28;20050;-72
2021/07/25 08:35:32;;;;;;;13.10;10.25;;;30.00;99.90;;;;;;5124419;28;20081;-71
2021/07/25 08:37:58;;;;;;;11.90;9.52;;;30.20;99.90;;;;;;5125694;28;20027;-71
2021/07/25 08:40:25;;;;;;;14.85;10.43;;;30.30;99.90;;;;;;5127468;28;20031;-68
2021/07/25 08:43:10;;;;;;;13.32;10.20;;;30.30;99.90;;;;;;5127866;28;20117;-71
2021/07/25 08:45:42;;;;;;;10.75;9.73;;;30.00;99.90;;;;;;5122314;28;20023;-71
2021/07/25 08:48:17;;;;;;;12.35;9.88;;;30.00;99.90;;;;;;5123165;28;20028;-70
2021/07/25 08:51:03;;;;;;;14.77;10.00;;;30.40;99.90;;;;;;5136433;28;20024;-70
2021/07/25 08:53:34;;;;;;;9.57;8.77;;;30.60;99.90;;;;;;5137005;28;20027;-70
2021/07/25 08:56:00;;;;;;;18.38;10.80;;;30.80;99.90;;;;;;5135358;28;20031;-69
2021/07/25 08:58:28;;;;;;;13.50;9.93;;;31.20;99.90;;;;;;5134371;28;20034;-71
2021/07/25 09:00:55;;;;;;;13.45;10.98;;;31.10;99.90;;;;;;5133933;28;20087;-71
2021/07/25 09:03:21;;;;;;;9.77;8.88;;;31.00;99.90;;;;;;5135261;28;20019;-70
2021/07/25 09:05:47;;;;;;;13.52;9.90;;;31.00;99.90;;;;;;5134313;28;20050;-68
2021/07/25 09:08:14;;;;;;;10.85;9.38;;;31.20;99.90;;;;;;5134525;28;20019;-69
2021/07/25 09:10:40;;;;;;;11.40;9.95;;;31.00;99.90;;;;;;5121429;28;20032;-71
2021/07/25 09:13:06;;;;;;;11.85;9.48;;;30.90;99.90;;;;;;5131995;28;20020;-69
2021/07/25 09:15:35;;;;;;;11.57;9.05;;;30.90;99.90;;;;;;5128529;28;20027;-70
2021/07/25 09:18:03;;;;;;;10.48;9.40;;;30.80;99.90;;;;;;5120880;28;20500;-70
2021/07/25 09:20:29;;;;;;;12.52;9.98;;;30.80;99.90;;;;;;5113899;28;20027;-69
2021/07/25 09:22:55;;;;;;;19.08;10.23;;;31.00;99.90;;;;;;5110597;28;20028;-69
2021/07/25 09:25:21;;;;;;;10.65;9.63;;;31.10;99.90;;;;;;5111507;28;20062;-68
2021/07/25 09:27:58;;;;;;;15.68;10.70;;;31.20;99.90;;;;;;5110267;28;20437;-68
2021/07/25 09:30:34;;;;;;;11.13;10.15;;;31.30;99.90;;;;;;5111573;28;20016;-71
2021/07/25 09:33:00;;;;;;;11.07;10.07;;;31.30;99.90;;;;;;5111821;28;20028;-70
2021/07/25 09:35:36;;;;;;;11.70;10.63;;;31.40;99.90;;;;;;5110674;28;20069;-68
2021/07/25 09:38:04;;;;;;;11.05;9.93;;;31.50;99.90;;;;;;5110111;28;20039;-68
2021/07/25 09:40:37;;;;;;;15.52;9.60;;;31.50;99.90;;;;;;5110191;28;20023;-68
2021/07/25 09:43:17;;;;;;;11.07;10.05;;;31.60;99.90;;;;;;5111486;28;20489;-68
2021/07/25 09:45:54;;;;;;;10.93;10.00;;;31.70;99.90;;;;;;5110023;28;20058;-72
2021/07/25 09:48:20;;;;;;;12.85;11.23;;;31.70;99.90;;;;;;5109777;28;20529;-69
2021/07/25 09:50:48;;;;;;;11.02;10.02;;;31.70;99.90;;;;;;5110294;28;20030;-68
2021/07/25 09:53:14;;;;;;;12.60;10.48;;;31.60;99.90;;;;;;5109989;28;20393;-68
2021/07/25 09:55:40;;;;;;;16.40;12.75;;;31.60;99.90;;;;;;5111481;28;20023;-68
2021/07/25 09:58:07;;;;;;;14.32;10.63;;;31.60;99.90;;;;;;5111032;28;20173;-68
2021/07/25 10:00:39;;;;;;;13.18;11.02;;;31.60;99.90;;;;;;5111112;28;20076;-68
2021/07/25 10:03:28;;;;;;;12.07;10.80;;;31.80;99.90;;;;;;5109822;28;20042;-68
2021/07/25 10:05:53;;;;;;;13.63;10.45;;;31.90;99.90;;;;;;5111553;28;20084;-68
2021/07/25 10:08:23;;;;;;;13.60;10.43;;;31.80;99.90;;;;;;5110128;28;20111;-71
2021/07/25 10:10:50;;;;;;;12.20;11.10;;;31.80;99.90;;;;;;5109725;28;20357;-70
2021/07/25 10:13:17;;;;;;;14.10;10.50;;;31.80;99.90;;;;;;5111410;28;20023;-70
2021/07/25 10:15:50;;;;;;;12.38;10.95;;;31.80;99.90;;;;;;5110966;28;20030;-70
2021/07/25 10:18:16;;;;;;;11.40;10.43;;;31.80;99.90;;;;;;5110570;28;20106;-70
2021/07/25 10:20:43;;;;;;;11.38;10.27;;;31.80;99.90;;;;;;5109561;28;20104;-70
2021/07/25 10:23:10;;;;;;;12.48;11.45;;;31.80;99.90;;;;;;5109427;28;20069;-71
2021/07/25 10:25:36;;;;;;;11.75;10.55;;;31.90;99.90;;;;;;5111198;28;20051;-69
2021/07/25 10:28:04;;;;;;;12.75;11.43;;;32.10;99.90;;;;;;5114732;28;20026;-69
2021/07/25 10:30:30;;;;;;;11.70;10.38;;;32.30;99.90;;;;;;5115315;28;20027;-71
2021/07/25 10:32:58;;;;;;;12.07;10.73;;;32.50;99.90;;;;;;5114864;28;20023;-69
2021/07/25 10:35:25;;;;;;;15.20;10.63;;;32.60;99.90;;;;;;5114700;28;20162;-69
2021/07/25 10:37:51;;;;;;;15.45;10.63;;;32.50;99.90;;;;;;5114257;28;20056;-68
2021/07/25 10:40:17;;;;;;;11.80;10.68;;;32.60;99.90;;;;;;5114729;28;20020;-70
2021/07/25 10:42:50;;;;;;;11.70;10.50;;;32.60;99.90;;;;;;5113073;28;20038;-69
2021/07/25 10:45:16;;;;;;;12.73;10.40;;;32.70;99.90;;;;;;5113567;28;20541;-70
2021/07/25 10:47:47;;;;;;;12.73;11.60;;;32.20;99.90;;;;;;5114164;28;20055;-72
2021/07/25 10:50:21;;;;;;;12.05;10.88;;;32.10;99.90;;;;;;5114410;28;20024;-70
2021/07/25 10:52:52;;;;;;;13.23;11.40;;;32.20;99.90;;;;;;5113020;28;20028;-69
2021/07/25 10:55:41;;;;;;;11.65;10.63;;;32.30;99.90;;;;;;5114278;28;20024;-68
2021/07/25 10:58:21;;;;;;;10.15;9.25;;;32.50;99.90;;;;;;5114312;28;20026;-69
2021/07/25 11:00:51;;;;;;;15.35;10.90;;;32.60;99.90;;;;;;5112965;28;20019;-70
2021/07/25 11:03:26;;;;;;;12.07;10.75;;;32.80;99.90;;;;;;5114506;28;20520;-72
2021/07/25 11:06:13;;;;;;;12.05;10.93;;;32.90;99.90;;;;;;5113127;28;20031;-70
2021/07/25 11:08:43;;;;;;;11.80;10.80;;;32.90;99.90;;;;;;5114055;28;20103;-68
2021/07/25 11:11:34;;;;;;;13.57;11.73;;;33.00;99.90;;;;;;5110193;28;20054;-70
2021/07/25 11:14:02;;;;;;;11.77;10.63;;;33.00;99.90;;;;;;5112388;28;20018;-69
2021/07/25 11:16:29;;;;;;;13.85;11.98;;;33.00;99.90;;;;;;5112824;28;20389;-72
2021/07/25 11:18:56;;;;;;;11.98;10.98;;;33.10;99.90;;;;;;5113694;28;20397;-69
2021/07/25 11:21:40;;;;;;;11.98;10.80;;;33.10;99.90;;;;;;5113618;27;20362;-70
2021/07/25 11:24:18;;;;;;;11.93;10.82;;;33.10;99.90;;;;;;5113806;28;20086;-72
2021/07/25 11:26:49;;;;;;;13.55;12.43;;;33.00;99.90;;;;;;5114434;28;20425;-70
2021/07/25 11:29:30;;;;;;;13.20;11.73;;;32.40;99.90;;;;;;5113763;28;20020;-71
2021/07/25 11:31:56;;;;;;;15.32;13.80;;;32.00;99.90;;;;;;5112294;28;20045;-71
2021/07/25 11:34:32;;;;;;;15.02;12.55;;;32.00;99.90;;;;;;5113763;28;20142;-70
2021/07/25 11:37:08;;;;;;;22.25;13.60;;;32.00;99.90;;;;;;5112435;28;20374;-70
2021/07/25 11:39:34;;;;;;;15.35;13.95;;;32.00;99.90;;;;;;5112356;28;20546;-69
2021/07/25 11:42:05;;;;;;;13.15;11.73;;;31.80;99.90;;;;;;5113611;28;20047;-69
2021/07/25 11:44:32;;;;;;;14.73;12.10;;;31.70;99.90;;;;;;5112283;28;20032;-72
2021/07/25 11:46:59;;;;;;;15.90;11.35;;;31.70;99.90;;;;;;5112137;28;20028;-69
2021/07/25 11:49:25;;;;;;;12.85;11.35;;;31.90;99.90;;;;;;5113836;28;20079;-72
2021/07/25 11:51:59;;;;;;;13.27;11.32;;;32.00;99.90;;;;;;5111920;28;20024;-72
2021/07/25 11:54:37;;;;;;;14.90;11.75;;;32.20;99.90;;;;;;5113396;28;20019;-68
2021/07/25 11:57:02;;;;;;;13.93;10.48;;;32.20;99.90;;;;;;5111846;28;20477;-69
2021/07/25 11:59:30;;;;;;;13.45;11.07;;;32.40;99.90;;;;;;5113170;28;20036;-71
2021/07/25 12:01:57;;;;;;;12.23;11.20;;;32.00;99.90;;;;;;5111442;28;20485;-70
2021/07/25 12:04:28;;;;;;;14.52;11.45;;;31.90;99.90;;;;;;5112936;28;20051;-70
2021/07/25 12:07:04;;;;;;;17.00;12.63;;;31.70;99.90;;;;;;5112990;28;20081;-71
2021/07/25 12:09:31;;;;;;;15.02;12.00;;;31.60;99.90;;;;;;5112848;28;20027;-71
2021/07/25 12:12:11;;;;;;;13.38;12.07;;;31.50;99.90;;;;;;5111062;28;20038;-70
2021/07/25 12:14:41;;;;;;;12.93;11.70;;;30.80;99.90;;;;;;5111369;28;20485;-69
2021/07/25 12:17:07;;;;;;;12.43;11.25;;;30.40;99.90;;;;;;5111189;28;20048;-72
2021/07/25 12:19:38;;;;;;;13.95;12.35;;;30.20;99.90;;;;;;5111115;28;20486;-70
2021/07/25 12:22:24;;;;;;;19.65;11.43;;;30.00;99.90;;;;;;5112571;28;20024;-71
2021/07/25 12:24:53;;;;;;;12.35;11.35;;;30.20;99.90;;;;;;5110802;28;20034;-71
2021/07/25 12:27:31;;;;;;;16.58;12.95;;;30.30;99.90;;;;;;5112423;28;20015;-70
2021/07/25 12:30:15;;;;;;;26.42;12.63;;;30.40;99.90;;;;;;5112460;28;20016;-69
2021/07/25 12:32:43;;;;;;;16.55;11.77;;;30.40;99.90;;;;;;5112428;28;20022;-71
2021/07/25 12:35:08;;;;;;;12.50;11.15;;;30.40;99.90;;;;;;5112355;28;20024;-70